< < Back
Terminal Aerodrome Forecast


Current Version              Previous Versions:   1  2  3  4  5  6  7  8  9  

Terminal Aerodrome Forecast

081
FTUS44 KHUN 181120
TAFHSV
TAF
KHSV 181120Z 1812/1912 03002KT P6SM VCSH BKN060 OVC100
      TEMPO 1812/1815 4SM SHRA BR BKN040
     FM181800 35006KT P6SM SCT050 SCT150
     FM190000 03002KT P6SM FEW050 SCT250
     FM190700 00000KT 5SM BR FEW250=



Latest METAR

811
SAUS80 KWBC 181300
MTRHSV
METAR KHSV 181253Z COR 00000KT 7SM FEW020 BKN060 BKN140 19/17 A2999 RMK
AO2 SLP148 T01940167


USA.gov is the U.S. government's official web portal to all federal, state and local government web resources and services.